createdAt,value
2019-05-10T00:00:34.465Z,6.88
2019-05-10T00:03:20.727Z,6.98
2019-05-10T00:06:07.848Z,6.93
2019-05-10T00:08:44.637Z,6.98
2019-05-10T00:11:33.273Z,6.94
2019-05-10T00:14:33.378Z,6.85
2019-05-10T00:17:08.466Z,6.89
2019-05-10T00:19:37.306Z,6.93
2019-05-10T00:22:05.030Z,6.99
2019-05-10T00:24:33.319Z,7.07
2019-05-10T00:27:01.811Z,7.10
2019-05-10T00:29:30.047Z,7.08
2019-05-10T00:31:58.622Z,7.12
2019-05-10T00:34:27.353Z,6.98
2019-05-10T00:36:56.065Z,6.90
2019-05-10T00:39:24.737Z,6.99
2019-05-10T00:41:53.551Z,6.93
2019-05-10T00:44:22.313Z,6.89
2019-05-10T00:46:50.762Z,6.66
2019-05-10T00:49:18.939Z,6.59
2019-05-10T00:51:47.736Z,6.54
2019-05-10T00:54:15.713Z,6.50
2019-05-10T00:56:43.275Z,6.43
2019-05-10T00:59:11.148Z,6.62
2019-05-10T01:01:39.623Z,6.61
2019-05-10T01:04:08.417Z,6.55
2019-05-10T01:06:36.966Z,6.53
2019-05-10T01:09:06.463Z,6.61
2019-05-10T01:11:35.023Z,6.48
2019-05-10T01:14:03.798Z,6.42
2019-05-10T01:16:32.488Z,6.41
2019-05-10T01:19:00.881Z,6.44
2019-05-10T01:21:28.638Z,6.49
2019-05-10T01:23:56.863Z,6.43
2019-05-10T01:26:25.002Z,6.48
2019-05-10T01:28:52.574Z,6.43
2019-05-10T01:31:21.152Z,6.47
2019-05-10T01:33:49.032Z,6.52
2019-05-10T01:36:17.310Z,6.58
2019-05-10T01:38:45.188Z,6.52
2019-05-10T01:41:13.053Z,6.45
2019-05-10T01:43:41.702Z,6.52
2019-05-10T01:46:10.158Z,6.56
2019-05-10T01:48:38.390Z,6.45
2019-05-10T01:51:06.709Z,6.44
2019-05-10T01:53:35.262Z,6.41
2019-05-10T01:56:03.482Z,6.51
2019-05-10T01:58:31.828Z,6.65
2019-05-10T02:01:00.660Z,6.61
2019-05-10T02:03:29.396Z,6.49
2019-05-10T02:05:57.727Z,6.45
2019-05-10T02:08:25.583Z,6.58
2019-05-10T02:10:53.870Z,6.53
2019-05-10T02:13:22.096Z,6.62
2019-05-10T02:15:50.392Z,6.58
2019-05-10T02:18:18.842Z,6.60
2019-05-10T02:20:47.263Z,6.48
2019-05-10T02:23:15.986Z,6.42
2019-05-10T02:25:45.178Z,6.45
2019-05-10T02:28:13.866Z,6.47
2019-05-10T02:30:41.897Z,6.48
2019-05-10T02:33:10.071Z,6.44
2019-05-10T02:35:38.354Z,6.44
2019-05-10T02:38:05.920Z,6.45
2019-05-10T02:40:34.699Z,6.42
2019-05-10T02:43:02.983Z,6.41
2019-05-10T02:45:30.952Z,6.43
2019-05-10T02:47:59.527Z,6.47
2019-05-10T02:50:27.826Z,6.37
2019-05-10T02:52:56.205Z,6.36
2019-05-10T02:55:25.002Z,6.35
2019-05-10T02:57:54.988Z,6.42
2019-05-10T03:00:23.868Z,6.43
2019-05-10T03:02:52.755Z,6.39
2019-05-10T03:05:21.157Z,6.28
2019-05-10T03:07:52.250Z,6.30
2019-05-10T03:10:20.309Z,6.24
2019-05-10T03:12:49.938Z,6.19
2019-05-10T03:15:18.026Z,6.13
2019-05-10T03:17:47.051Z,6.09
2019-05-10T03:20:16.107Z,6.11
2019-05-10T03:22:44.810Z,6.08
2019-05-10T03:25:13.468Z,6.07
2019-05-10T03:27:41.816Z,6.12
2019-05-10T03:30:10.096Z,6.08
2019-05-10T03:32:38.108Z,6.11
2019-05-10T03:35:07.219Z,6.06
2019-05-10T03:37:35.732Z,6.10
2019-05-10T03:40:05.209Z,6.30
2019-05-10T03:42:33.278Z,6.32
2019-05-10T03:45:01.605Z,6.21
2019-05-10T03:47:29.955Z,6.12
2019-05-10T03:49:58.681Z,6.21
2019-05-10T03:52:27.155Z,6.14
2019-05-10T03:54:55.455Z,6.15
2019-05-10T03:57:23.753Z,6.11
2019-05-10T03:59:52.328Z,6.10
2019-05-10T04:02:20.704Z,6.08
2019-05-10T04:04:48.994Z,6.15
2019-05-10T04:07:17.386Z,6.24
2019-05-10T04:09:45.634Z,6.19
2019-05-10T04:12:14.239Z,6.20
2019-05-10T04:14:42.873Z,6.15
2019-05-10T04:17:11.217Z,6.07
2019-05-10T04:19:39.562Z,6.04
2019-05-10T04:22:08.177Z,6.04
2019-05-10T04:24:36.855Z,6.04
2019-05-10T04:27:05.270Z,6.08
2019-05-10T04:29:33.545Z,6.04
2019-05-10T04:32:01.709Z,6.13
2019-05-10T04:34:29.579Z,6.08
2019-05-10T04:36:57.816Z,6.22
2019-05-10T04:39:25.370Z,6.23
2019-05-10T04:41:53.942Z,6.31
2019-05-10T04:44:22.166Z,6.31
2019-05-10T04:46:50.754Z,6.26
2019-05-10T04:49:19.629Z,6.44
2019-05-10T04:51:47.875Z,6.49
2019-05-10T04:54:15.835Z,6.46
2019-05-10T04:56:44.201Z,6.57
2019-05-10T04:59:11.699Z,6.47
2019-05-10T05:01:40.273Z,6.47
2019-05-10T05:04:08.608Z,6.43
2019-05-10T05:06:37.109Z,6.44
2019-05-10T05:09:06.831Z,6.41
2019-05-10T05:11:34.388Z,6.48
2019-05-10T05:14:02.637Z,6.61
2019-05-10T05:16:31.209Z,6.60
2019-05-10T05:18:59.481Z,6.67
2019-05-10T05:21:28.046Z,6.74
2019-05-10T05:23:56.255Z,6.71
2019-05-10T05:26:24.852Z,6.81
2019-05-10T05:28:53.235Z,6.78
2019-05-10T05:31:21.206Z,6.83
2019-05-10T05:33:49.477Z,6.93
2019-05-10T05:36:17.792Z,7.00
2019-05-10T05:38:47.344Z,7.13
2019-05-10T05:41:15.869Z,7.10
2019-05-10T05:43:46.341Z,7.11
2019-05-10T05:46:14.771Z,7.17
2019-05-10T05:48:43.371Z,7.16
2019-05-10T05:51:12.079Z,7.26
2019-05-10T05:53:42.370Z,7.28
2019-05-10T05:56:14.222Z,7.24
2019-05-10T05:58:44.455Z,7.29
2019-05-10T06:01:10.888Z,7.32
2019-05-10T06:03:39.543Z,7.32
2019-05-10T06:06:15.481Z,7.28
2019-05-10T06:08:38.517Z,7.22
2019-05-10T06:11:09.163Z,7.38
2019-05-10T06:13:36.977Z,7.45
2019-05-10T06:16:06.719Z,7.48
2019-05-10T06:18:36.126Z,7.44
2019-05-10T06:21:04.553Z,7.48
2019-05-10T06:23:35.104Z,7.52
2019-05-10T06:26:03.284Z,7.56
2019-05-10T06:28:56.886Z,7.62
2019-05-10T06:31:01.567Z,7.69
2019-05-10T06:33:29.895Z,7.73
2019-05-10T06:35:58.186Z,7.72
2019-05-10T06:38:26.109Z,7.67
2019-05-10T06:40:54.567Z,7.72
2019-05-10T06:43:22.829Z,7.71
2019-05-10T06:45:52.296Z,7.62
2019-05-10T06:48:27.386Z,7.55
2019-05-10T06:50:51.923Z,7.55
2019-05-10T06:53:23.170Z,7.64
2019-05-10T06:55:51.067Z,7.66
2019-05-10T06:58:20.342Z,7.77
2019-05-10T07:00:48.939Z,7.90
2019-05-10T07:03:17.849Z,8.01
2019-05-10T07:05:45.711Z,8.05
2019-05-10T07:08:20.149Z,8.19
2019-05-10T07:10:44.769Z,8.20
2019-05-10T07:13:13.154Z,8.25
2019-05-10T07:15:42.639Z,8.27
2019-05-10T07:18:16.931Z,8.27
2019-05-10T07:20:43.271Z,8.33
2019-05-10T07:23:11.934Z,8.30
2019-05-10T07:25:43.731Z,8.38
2019-05-10T07:28:15.902Z,8.51
2019-05-10T07:30:41.783Z,8.55
2019-05-10T07:33:09.898Z,8.69
2019-05-10T07:35:38.801Z,8.76
2019-05-10T07:38:06.868Z,8.85
2019-05-10T07:40:34.838Z,8.90
2019-05-10T07:43:03.002Z,8.89
2019-05-10T07:45:31.352Z,8.95
2019-05-10T07:48:02.424Z,8.95
2019-05-10T07:50:30.328Z,8.87
2019-05-10T07:52:59.162Z,9.02
2019-05-10T07:55:29.819Z,9.02
2019-05-10T07:57:59.195Z,9.10
2019-05-10T08:00:27.933Z,9.32
2019-05-10T08:03:07.501Z,9.43
2019-05-10T08:05:29.201Z,9.39
2019-05-10T08:07:58.816Z,9.42
2019-05-10T08:10:28.972Z,9.35
2019-05-10T08:12:59.515Z,9.39
2019-05-10T08:15:30.513Z,9.39
2019-05-10T08:17:58.749Z,9.25
2019-05-10T08:20:41.414Z,9.29
2019-05-10T08:22:57.168Z,9.29
2019-05-10T08:25:29.094Z,9.26
2019-05-10T08:27:55.638Z,9.30
2019-05-10T08:30:42.701Z,9.42
2019-05-10T08:33:10.947Z,9.43
2019-05-10T08:35:39.240Z,9.45
2019-05-10T08:38:08.103Z,9.44
2019-05-10T08:40:37.972Z,9.33
2019-05-10T08:43:08.905Z,9.33
2019-05-10T08:45:38.915Z,9.31
2019-05-10T08:48:07.320Z,9.47
2019-05-10T08:50:49.737Z,9.69
2019-05-10T08:53:10.717Z,9.64
2019-05-10T08:55:35.873Z,9.60
2019-05-10T08:58:04.500Z,9.47
2019-05-10T09:00:45.643Z,9.37
2019-05-10T09:03:09.275Z,9.44
2019-05-10T09:05:34.091Z,9.51
2019-05-10T09:08:05.497Z,9.59
2019-05-10T09:10:32.569Z,9.70
2019-05-10T09:13:03.248Z,10.05
2019-05-10T09:15:33.040Z,10.28
2019-05-10T09:18:04.144Z,10.33
2019-05-10T09:20:32.020Z,10.52
2019-05-10T09:23:02.391Z,10.80
2019-05-10T09:25:31.572Z,11.09
2019-05-10T09:28:02.480Z,11.07
2019-05-10T09:30:35.360Z,11.08
2019-05-10T09:33:08.515Z,11.26
2019-05-10T09:35:32.981Z,11.28
2019-05-10T09:38:02.102Z,11.41
2019-05-10T09:40:32.651Z,11.41
2019-05-10T09:43:14.868Z,11.18
2019-05-10T09:45:43.309Z,11.26
2019-05-10T09:48:12.283Z,11.29
2019-05-10T09:50:46.301Z,11.10
2019-05-10T09:53:15.141Z,11.17
2019-05-10T09:55:45.434Z,11.20
2019-05-10T09:58:11.169Z,11.25
2019-05-10T10:00:39.140Z,11.36
2019-05-10T10:03:08.190Z,11.19
2019-05-10T10:05:39.814Z,11.40
2019-05-10T10:08:09.244Z,11.72
2019-05-10T10:10:37.301Z,11.88
2019-05-10T10:13:13.528Z,12.00
2019-05-10T10:15:37.286Z,12.01
2019-05-10T10:18:05.828Z,12.00
2019-05-10T10:20:36.042Z,11.94
2019-05-10T10:23:07.017Z,11.85
2019-05-10T10:25:40.390Z,11.81
2019-05-10T10:28:10.370Z,11.76
2019-05-10T10:30:37.375Z,11.68
2019-05-10T10:33:10.499Z,11.61
2019-05-10T10:35:37.829Z,11.48
2019-05-10T10:38:07.762Z,11.33
2019-05-10T10:40:44.201Z,11.31
2019-05-10T10:43:07.457Z,11.86
2019-05-10T10:45:37.678Z,12.03
2019-05-10T10:48:08.440Z,12.07
2019-05-10T10:50:36.526Z,12.05
2019-05-10T10:53:07.807Z,12.14
2019-05-10T10:55:37.790Z,12.09
2019-05-10T10:58:07.369Z,11.91
2019-05-10T11:00:38.995Z,11.93
2019-05-10T11:03:05.899Z,11.86
2019-05-10T11:05:34.302Z,11.69
2019-05-10T11:08:02.682Z,11.66
2019-05-10T11:10:31.452Z,11.71
2019-05-10T11:13:02.951Z,11.72
2019-05-10T11:15:35.989Z,11.53
2019-05-10T11:18:00.656Z,11.21
2019-05-10T11:20:31.510Z,10.94
2019-05-10T11:22:59.440Z,10.75
2019-05-10T11:25:27.302Z,10.57
2019-05-10T11:27:58.596Z,10.11
2019-05-10T11:30:25.688Z,9.77
2019-05-10T11:32:53.987Z,9.41
2019-05-10T11:35:30.228Z,9.29
2019-05-10T11:37:53.206Z,9.74
2019-05-10T11:40:30.560Z,10.40
2019-05-10T11:42:51.251Z,10.79
2019-05-10T11:45:20.902Z,11.29
2019-05-10T11:47:54.476Z,11.67
2019-05-10T11:50:28.881Z,12.01
2019-05-10T11:52:51.329Z,12.16
2019-05-10T11:58:01.536Z,12.33
2019-05-10T11:59:03.906Z,12.50
2019-05-10T12:00:28.534Z,12.09
2019-05-10T12:03:12.628Z,11.67
2019-05-10T12:05:26.310Z,11.31
2019-05-10T12:07:54.699Z,11.17
2019-05-10T12:10:25.682Z,11.26
2019-05-10T12:13:06.145Z,11.51
2019-05-10T12:17:58.862Z,12.07
2019-05-10T12:20:39.546Z,12.04
2019-05-10T12:22:54.181Z,11.91
2019-05-10T12:25:42.520Z,11.76
2019-05-10T12:26:06.530Z,11.85
2019-05-10T12:27:52.758Z,11.58
2019-05-10T12:30:21.656Z,11.45
2019-05-10T12:33:05.830Z,11.28
2019-05-10T12:35:21.399Z,11.14
2019-05-10T12:37:54.269Z,11.15
2019-05-10T12:40:23.831Z,11.19
2019-05-10T12:42:51.192Z,11.25
2019-05-10T12:45:22.897Z,11.30
2019-05-10T12:47:51.852Z,11.55
2019-05-10T12:50:21.367Z,11.75
2019-05-10T12:53:01.956Z,11.93
2019-05-10T12:55:19.500Z,11.93
2019-05-10T12:57:47.492Z,12.03
2019-05-10T13:00:16.320Z,12.24
2019-05-10T13:02:51.433Z,12.51
2019-05-10T13:05:16.058Z,13.07
2019-05-10T13:07:44.792Z,13.30
2019-05-10T13:10:13.286Z,13.60
2019-05-10T13:12:44.367Z,13.85
2019-05-10T13:15:11.843Z,13.83
2019-05-10T13:17:44.127Z,13.97
2019-05-10T13:20:10.943Z,14.25
2019-05-10T13:22:39.676Z,15.01
2019-05-10T13:25:08.410Z,14.35
2019-05-10T13:27:36.604Z,14.17
2019-05-10T13:30:05.142Z,13.85
2019-05-10T13:32:33.419Z,13.47
2019-05-10T13:35:01.784Z,13.64
2019-05-10T13:37:30.103Z,14.27
2019-05-10T13:40:05.051Z,15.83
2019-05-10T13:42:28.614Z,17.05
2019-05-10T13:44:57.418Z,17.82
2019-05-10T13:47:25.680Z,17.81
2019-05-10T13:49:53.868Z,18.88
2019-05-10T13:52:22.645Z,19.77
2019-05-10T13:54:50.220Z,20.36
2019-05-10T13:57:18.499Z,20.77
2019-05-10T13:59:48.807Z,20.52
2019-05-10T14:02:22.974Z,20.79
2019-05-10T14:04:47.030Z,21.69
2019-05-10T14:07:15.719Z,22.08
2019-05-10T14:09:44.244Z,21.13
2019-05-10T14:12:16.221Z,20.78
2019-05-10T14:14:42.673Z,20.28
2019-05-10T14:17:10.663Z,20.40
2019-05-10T14:19:39.345Z,19.74
2019-05-10T14:22:07.979Z,18.36
2019-05-10T14:24:36.230Z,18.03
2019-05-10T14:27:04.583Z,18.36
2019-05-10T14:29:36.445Z,18.61
2019-05-10T14:32:02.976Z,19.03
2019-05-10T14:34:31.268Z,20.28
2019-05-10T14:36:59.614Z,21.52
2019-05-10T14:39:27.608Z,20.59
2019-05-10T14:41:56.219Z,20.95
2019-05-10T14:44:25.034Z,21.78
2019-05-10T14:46:53.559Z,23.08
2019-05-10T14:49:21.808Z,23.61
2019-05-10T14:51:59.098Z,22.02
2019-05-10T14:54:22.915Z,19.04
2019-05-10T14:56:53.912Z,17.17
2019-05-10T14:59:21.514Z,16.76
2019-05-10T15:01:50.222Z,19.52
2019-05-10T15:04:43.847Z,19.52
2019-05-10T15:06:49.325Z,20.54
2019-05-10T15:09:21.740Z,20.15
2019-05-10T15:11:48.392Z,20.75
2019-05-10T15:14:16.851Z,21.38
2019-05-10T15:16:45.291Z,22.03
2019-05-10T15:19:14.235Z,22.48
2019-05-10T15:21:42.836Z,22.47
2019-05-10T15:24:10.734Z,22.76
2019-05-10T15:26:43.839Z,21.34
2019-05-10T15:29:15.202Z,19.31
2019-05-10T15:31:40.123Z,17.78
2019-05-10T15:34:08.930Z,15.81
2019-05-10T15:36:36.906Z,14.68
2019-05-10T15:39:06.583Z,14.13
2019-05-10T15:41:34.880Z,13.70
2019-05-10T15:44:03.838Z,13.36
2019-05-10T15:46:39.538Z,13.17
2019-05-10T15:49:01.988Z,12.99
2019-05-10T15:51:36.312Z,12.94
2019-05-10T15:54:04.966Z,12.89
2019-05-10T15:56:35.481Z,12.97
2019-05-10T15:59:02.376Z,12.98
2019-05-10T16:01:30.279Z,13.02
2019-05-10T16:03:58.187Z,13.05
2019-05-10T16:06:26.581Z,13.03
2019-05-10T16:08:54.865Z,13.10
2019-05-10T16:11:23.038Z,13.33
2019-05-10T16:13:54.825Z,13.44
2019-05-10T16:16:21.991Z,13.36
2019-05-10T16:18:50.374Z,13.22
2019-05-10T16:21:18.739Z,13.06
2019-05-10T16:23:48.358Z,12.86
2019-05-10T16:26:17.617Z,12.75
2019-05-10T16:28:46.586Z,12.71
2019-05-10T16:31:14.763Z,12.65
2019-05-10T16:33:42.733Z,12.72
2019-05-10T16:36:10.999Z,12.83
2019-05-10T16:38:38.954Z,12.76
2019-05-10T16:41:06.979Z,12.67
2019-05-10T16:43:35.769Z,12.70
2019-05-10T16:46:04.502Z,12.65
2019-05-10T16:48:32.738Z,12.82
2019-05-10T16:51:03.737Z,12.78
2019-05-10T16:53:31.534Z,12.66
2019-05-10T16:56:00.242Z,12.60
2019-05-10T16:58:28.134Z,12.67
2019-05-10T17:00:56.083Z,12.54
2019-05-10T17:03:24.448Z,12.48
2019-05-10T17:05:53.869Z,12.36
2019-05-10T17:08:22.704Z,12.29
2019-05-10T17:10:51.471Z,12.21
2019-05-10T17:13:20.261Z,12.25
2019-05-10T17:15:48.955Z,12.20
2019-05-10T17:18:20.315Z,12.00
2019-05-10T17:20:50.715Z,11.99
2019-05-10T17:23:20.137Z,11.90
2019-05-10T17:25:48.879Z,11.77
2019-05-10T17:28:18.210Z,11.69
2019-05-10T17:30:48.329Z,11.60
2019-05-10T17:33:18.275Z,11.50
2019-05-10T17:35:47.366Z,11.45
2019-05-10T17:38:16.378Z,11.40
2019-05-10T17:40:48.067Z,11.40
2019-05-10T17:43:20.919Z,11.41
2019-05-10T17:45:47.795Z,11.47
2019-05-10T17:48:16.214Z,11.53
2019-05-10T17:50:45.963Z,11.59
2019-05-10T17:53:15.997Z,11.61
2019-05-10T17:55:49.164Z,11.65
2019-05-10T17:58:17.245Z,11.65
2019-05-10T18:00:45.135Z,11.64
2019-05-10T18:03:14.194Z,11.69
2019-05-10T18:05:46.862Z,11.73
2019-05-10T18:08:15.504Z,11.76
2019-05-10T18:10:44.289Z,11.76
2019-05-10T18:13:12.651Z,11.79
2019-05-10T18:15:40.911Z,11.77
2019-05-10T18:18:09.299Z,11.74
2019-05-10T18:20:42.256Z,11.71
2019-05-10T18:23:07.637Z,11.72
2019-05-10T18:25:35.634Z,11.62
2019-05-10T18:28:03.967Z,11.46
2019-05-10T18:30:32.650Z,11.32
2019-05-10T18:33:01.140Z,11.16
2019-05-10T18:35:28.695Z,11.00
2019-05-10T18:37:59.518Z,10.82
2019-05-10T18:40:31.564Z,10.67
2019-05-10T18:43:03.147Z,10.51
2019-05-10T18:45:29.823Z,10.36
2019-05-10T18:47:58.043Z,10.26
2019-05-10T18:50:25.941Z,10.14
2019-05-10T18:52:54.521Z,10.00
2019-05-10T18:55:23.158Z,9.88
2019-05-10T18:57:52.616Z,9.73
2019-05-10T19:00:23.257Z,9.59
2019-05-10T19:02:55.098Z,9.47
2019-05-10T19:05:25.172Z,9.40
2019-05-10T19:08:03.077Z,9.25
2019-05-10T19:10:22.645Z,9.17
2019-05-10T19:12:59.504Z,9.07
2019-05-10T19:15:20.331Z,9.01
2019-05-10T19:17:49.072Z,8.95
2019-05-10T19:20:18.479Z,8.84
2019-05-10T19:22:46.941Z,8.75
2019-05-10T19:25:15.705Z,8.70
2019-05-10T19:27:49.975Z,8.68
2019-05-10T19:30:19.977Z,8.62
2019-05-10T19:32:51.197Z,8.57
2019-05-10T19:35:16.994Z,8.50
2019-05-10T19:37:45.711Z,8.42
2019-05-10T19:40:14.446Z,8.34
2019-05-10T19:42:44.943Z,8.27
2019-05-10T19:45:19.369Z,8.20
2019-05-10T19:47:50.003Z,8.18
2019-05-10T19:50:16.782Z,8.16
2019-05-10T19:52:45.804Z,8.12
2019-05-10T19:55:19.611Z,8.07
2019-05-10T19:57:49.430Z,8.08
2019-05-10T20:00:18.568Z,8.04
2019-05-10T20:02:47.065Z,7.90
2019-05-10T20:05:15.866Z,7.88
2019-05-10T20:07:46.198Z,7.83
2019-05-10T20:10:15.093Z,7.76
2019-05-10T20:12:43.750Z,7.71
2019-05-10T20:15:11.701Z,7.69
2019-05-10T20:17:39.278Z,7.66
2019-05-10T20:20:08.041Z,7.65
2019-05-10T20:22:36.753Z,7.68
2019-05-10T20:25:05.294Z,7.72
2019-05-10T20:27:33.878Z,7.71
2019-05-10T20:30:02.717Z,7.75
2019-05-10T20:32:31.603Z,7.75
2019-05-10T20:35:00.409Z,7.75
2019-05-10T20:37:29.605Z,7.77
2019-05-10T20:39:58.675Z,7.78
2019-05-10T20:42:27.848Z,7.77
2019-05-10T20:45:06.850Z,7.77
2019-05-10T20:47:28.777Z,7.76
2019-05-10T20:49:57.975Z,7.78
2019-05-10T20:52:26.594Z,7.76
2019-05-10T20:54:55.493Z,7.75
2019-05-10T20:57:24.154Z,7.71
2019-05-10T20:59:53.265Z,7.68
2019-05-10T21:02:23.785Z,7.82
2019-05-10T21:04:52.074Z,7.88
2019-05-10T21:07:20.699Z,7.89
2019-05-10T21:09:49.435Z,7.94
2019-05-10T21:12:17.881Z,7.92
2019-05-10T21:14:45.934Z,7.96
2019-05-10T21:17:14.800Z,7.97
2019-05-10T21:19:43.634Z,7.96
2019-05-10T21:22:11.629Z,7.94
2019-05-10T21:24:39.188Z,7.95
2019-05-10T21:27:07.565Z,7.90
2019-05-10T21:29:36.374Z,7.98
2019-05-10T21:32:04.927Z,7.94
2019-05-10T21:34:33.723Z,7.90
2019-05-10T21:37:01.934Z,7.84
2019-05-10T21:39:30.309Z,7.84
2019-05-10T21:41:58.559Z,7.77
2019-05-10T21:44:27.179Z,7.81
2019-05-10T21:46:55.997Z,7.84
2019-05-10T21:49:24.781Z,7.86
2019-05-10T21:51:53.500Z,7.96
2019-05-10T21:54:21.440Z,8.10
2019-05-10T21:56:49.829Z,8.04
2019-05-10T21:59:18.616Z,8.08
2019-05-10T22:01:46.764Z,8.07
2019-05-10T22:04:15.604Z,8.05
2019-05-10T22:06:44.153Z,8.08
2019-05-10T22:09:12.870Z,8.08
2019-05-10T22:11:40.871Z,8.21
2019-05-10T22:14:09.604Z,8.25
2019-05-10T22:16:38.188Z,8.30
2019-05-10T22:19:05.913Z,8.42
2019-05-10T22:21:33.765Z,8.36
2019-05-10T22:24:02.090Z,8.24
2019-05-10T22:26:30.455Z,8.17
2019-05-10T22:28:59.075Z,8.12
2019-05-10T22:31:27.814Z,8.09
2019-05-10T22:33:55.699Z,8.08
2019-05-10T22:36:23.970Z,8.05
2019-05-10T22:39:05.783Z,8.09
2019-05-10T22:41:21.199Z,8.24
2019-05-10T22:43:49.035Z,8.40
2019-05-10T22:46:16.594Z,8.42
2019-05-10T22:48:44.795Z,8.49
2019-05-10T22:51:12.970Z,8.41
2019-05-10T22:53:41.222Z,8.36
2019-05-10T22:56:09.064Z,8.42
2019-05-10T22:58:37.315Z,8.43
2019-05-10T23:01:05.447Z,8.39
2019-05-10T23:03:33.859Z,8.35
2019-05-10T23:06:02.219Z,8.37
2019-05-10T23:08:30.619Z,8.34
2019-05-10T23:10:59.207Z,8.46
2019-05-10T23:13:28.100Z,8.55
2019-05-10T23:15:56.380Z,8.46
2019-05-10T23:18:25.080Z,8.41
2019-05-10T23:20:53.354Z,8.40
2019-05-10T23:23:21.629Z,8.38
2019-05-10T23:25:49.505Z,8.34
2019-05-10T23:28:18.048Z,8.32
2019-05-10T23:30:46.395Z,8.31
2019-05-10T23:33:14.660Z,8.31
2019-05-10T23:35:42.564Z,8.33
2019-05-10T23:38:10.518Z,8.37
2019-05-10T23:40:39.110Z,8.47
2019-05-10T23:43:07.678Z,8.47
2019-05-10T23:45:36.416Z,8.64
2019-05-10T23:48:05.170Z,8.66
2019-05-10T23:50:33.380Z,8.58
2019-05-10T23:53:00.939Z,8.59
2019-05-10T23:55:29.364Z,8.58
2019-05-10T23:57:57.288Z,8.54
